Elizabeth, Pennsylvania
Current Conditions -  °F | °C
As of 8:53 PM on Monday 24 Nov 2014 (Local Time) from KAGC Reporting Station
Clear Clear  
Wind Chill: 50°   Ceiling: Unl
Heat Index: 50°   Visibility: 10mi
Dew Point: 35°   Wind: 18mph
Humidity: 57%   Direction: 280°W
Pressure: 29.75"   Gusts: 25mph
Location:  40.27°N, 79.89°W
Report Text: KAGC 250153Z 28016G22KT 10SM CLR 10/02 A2975 RMK AO2 PRESRR SLP076 T01000017
Loading
Personal Weather Stations






























Interactive Weather Map New forecast layout! Learn more

10-Day Weather Forecast

Advertisements
Track Severe Weather on mobile